ADDS METAR Data INFO
IDs: Format: Raw Decoded Include TAF

Data at: 1354 UTC 23 Apr 2018

KESC 231322Z AUTO 00000KT 10SM FEW002 06/M04 A3032 RMK AO2
KESC 231256Z AUTO 00000KT 10SM CLR 04/M03 A3032 RMK AO2 SLP293 T00391028
KESC 231156Z AUTO 00000KT 10SM CLR M01/M03 A3032 RMK AO2 SLP294 T10061028 11006 21044 53006 FZRANO
KESC 231056Z AUTO 00000KT 10SM CLR M04/M06 A3030 RMK AO2 SLP290 T10441056 FZRANO
KESC 230956Z AUTO 00000KT 10SM CLR M03/M06 A3031 RMK AO2 SLP291 T10331056 FZRANO
KESC 230856Z AUTO 00000KT 10SM CLR M03/M05 A3030 RMK AO2 SLP289 T10331050 55003 FZRANO
KESC 230756Z AUTO 00000KT 10SM CLR M03/M05 A3030 RMK AO2 SLP288 T10331050 FZRANO
KESC 230656Z AUTO 00000KT 10SM CLR M03/M05 A3030 RMK AO2 SLP288 T10281050 FZRANO
KESC 230556Z AUTO 00000KT 10SM CLR M02/M05 A3031 RMK AO2 SLP293 T10221050 10094 21028 56005 FZRANO
KESC 230456Z AUTO 00000KT 10SM CLR M03/M06 A3031 RMK AO2 SLP294 T10281056 401171056 FZRANO
KESC 230356Z AUTO 28005KT 10SM CLR M02/M06 A3032 RMK AO2 SLP294 T10171056 FZRANO
KESC 230256Z AUTO 00000KT 10SM CLR M01/M05 A3033 RMK AO2 SLP298 T10061050 53001 FZRANO
KESC 230156Z AUTO 00000KT 10SM CLR 01/M06 A3032 RMK AO2 SLP296 T00111056 FZRANO
KESC 230056Z AUTO 00000KT 10SM CLR 05/M06 A3032 RMK AO2 SLP294 T00501056
KESC 222356Z AUTO 18004KT 10SM CLR 09/M08 A3032 RMK AO2 SLP296 T00891078 10117 20089 56007
KESC 222256Z AUTO 15007KT 10SM CLR 11/M08 A3033 RMK AO2 SLP294 T01061078
KESC 222156Z AUTO 16008KT 10SM CLR 11/M07 A3033 RMK AO2 SLP298 T01061067
KESC 222056Z AUTO 14007KT 10SM CLR 11/M06 A3035 RMK AO2 SLP304 T01111061 58018
KESC 221956Z AUTO 15009KT 10SM CLR 11/M06 A3037 RMK AO2 SLP312 T01111056
KESC 221856Z AUTO 15009KT 10SM CLR 10/M03 A3039 RMK AO2 SLP319 T01001033
KESC 221756Z AUTO 14010KT 10SM CLR 09/M01 A3040 RMK AO2 SLP323 T00891011 10094 21017 58006
KESC 221656Z AUTO 15007KT 10SM CLR 09/M02 A3042 RMK AO2 SLP328 T00891017
KESC 221556Z AUTO 13006KT 10SM CLR 09/M01 A3042 RMK AO2 SLP328 T00891011
KESC 221456Z AUTO 13005KT 10SM CLR 07/M02 A3042 RMK AO2 SLP327 T00721017 51003
KESC 221356Z AUTO 00000KT 10SM CLR 07/M02 A3042 RMK AO2 SLP326 T00721022
KESC 221256Z AUTO 00000KT 10SM CLR 03/M01 A3042 RMK AO2 SLP327 T00281011
KESC 221156Z AUTO 00000KT 10SM CLR M02/M03 A3041 RMK AO2 SLP325 T10171028 11017 21056 53012 FZRANO
KESC 221056Z AUTO 30003KT 9SM CLR M06/M06 A3039 RMK AO2 SLP316 T10561061 FZRANO
KESC 220956Z AUTO 00000KT 8SM CLR M05/M06 A3037 RMK AO2 SLP311 T10501056 FZRANO
KESC 220856Z AUTO 00000KT 10SM CLR M05/M06 A3037 RMK AO2 SLP311 T10501056 55002 FZRANO
KESC 220756Z AUTO 00000KT 10SM CLR M04/M04 A3037 RMK AO2 SLP312 T10391044 FZRANO
KESC 220656Z AUTO 00000KT 10SM CLR M03/M05 A3037 RMK AO2 SLP313 T10331050 FZRANO
KESC 220556Z AUTO 00000KT 10SM CLR M03/M04 A3038 RMK AO2 SLP314 T10281044 10094 21028 58001 FZRANO
KESC 220456Z AUTO 00000KT 10SM CLR M02/M04 A3039 RMK AO2 SLP317 T10221039 401221028 FZRANO
KESC 220356Z AUTO 00000KT 10SM CLR M02/M04 A3039 RMK AO2 SLP316 T10171039 FZRANO
KESC 220256Z AUTO 00000KT 10SM CLR 02/M02 A3038 RMK AO2 SLP315 T00221022 53012 FZRANO
KESC 220156Z AUTO 07004KT 10SM CLR 03/M02 A3037 RMK AO2 SLP310 T00281017